Vídeo:

Imagens arrepiantes da aterragem do Airbus A321NEO no Aeroporto João Paulo II

Imagens arrepiantes da aterragem do Airbus A321NEO no Aeroporto João Paulo II

Imagens arrepiantes da aterragem do Airbus A321neo hoje (28 de Dezembro) em Ponta Delgada, Ilha de São Miguel.


⚠️ Mau tempo: recorde-se que o Grupo Oriental encontra-se em alerta amarelo / laranja para vento e chuva forte:

🟡 Precipitação – entre as 14h00 e as 23h00 de terça-feira, 28 de dezembro
🟠 Precipitação – entre as 23h00 de terça-feira, 28 de dezembro, e as 14h00 de quarta-feira, 29 de dezembro
🟡 Vento – entre as 10h49 de terça-feira, 28 de dezembro, e as 08h00 de quarta-feira, 29 de dezembro
🟡 Agitação Marítima – entre as 17h00 de terça-feira, 28 de dezembro, e as 11h00 de quarta-feira, 29 de dezembro


Flight info: Lisboa (LPPT) – Ponta Delgada (LPPD) RZO125, Airbus A321-253neo LR, Azores Airlines CS-TSH “Magical”, 28DEC2021 Metar: LPPD 281530Z 20024KT 6000 FEW008 SCT016 19/17 Q1007

📷 Vídeo por Spotter Rodrigues

Os Açores no seu email

Receba novidades, conteúdos, destaques...


Li e aceito a Política de Privacidade